Sioux Arrow — WAG6168 — position and weather

sailwx.info

Track history (hours):
 
Tides and Currents Weather Stations Pressure Air Temp Water Temp Dewpoint Dewpoint Depression Visibility Wind Speed Wind Dir Waves Ship Positions

Sioux Arrow

Owner: HARMON, JACK L, PORT ANGELES, WA. More information available from US FCC via Universal Licensing System and Coast Guard Vessel Documentation Center.

Last reported at 2017-Aug-20 18:59 UTC. Time now 2017-Aug-20 19:09 UTC.
Position N 48°33' W 122°34'.

Type: Port tender. MMSI: 366973370.

Date/timePositionNaut miles runAvg speedWind from/ knotsBaromVisibWave heightAir tempDewpointWater temp
2017-Aug-20 18:59N 48°33' W 122°34'3 6.7
2017-Aug-20 18:31N 48°36' W 122°32'0 0.1
2017-Aug-20 17:38N 48°36' W 122°32'1 5.8
2017-Aug-20 17:31N 48°36' W 122°33'5 0.3
2017-Aug-20 01:39N 48°31' W 122°35'312.9
2017-Aug-20 01:27N 48°34' W 122°34'3 6.4
2017-Aug-20 01:00N 48°37' W 122°34'5 1.0
2017-Aug-19 19:22N 48°32' W 122°35'411.7
2017-Aug-19 19:00N 48°36' W 122°36'0 0.2
2017-Aug-19 18:30N 48°36' W 122°36'5 0.5
2017-Aug-19 08:19N 48°31' W 122°36'310.1
2017-Aug-19 08:00N 48°34' W 122°35'2 3.3
2017-Aug-19 07:22N 48°36' W 122°35'1 1.5
2017-Aug-19 06:58N 48°35' W 122°36'1 0.6
2017-Aug-19 04:59N 48°35' W 122°34'1 2.5
2017-Aug-19 04:29N 48°36' W 122°34'2 0.5
2017-Aug-19 00:24N 48°34' W 122°34'3 7.3
2017-Aug-18 23:59N 48°36' W 122°32'1 2.6
2017-Aug-18 23:30N 48°35' W 122°34'1 0.2
2017-Aug-18 18:59N 48°34' W 122°34'3 6.3
2017-Aug-18 18:29N 48°37' W 122°33'4 7.7
2017-Aug-18 17:59N 48°34' W 122°34'0 0.0
2017-Aug-18 03:12N 48°34' W 122°34'314.0
2017-Aug-18 03:00N 48°36' W 122°34'6 0.9
2017-Aug-17 20:49N 48°31' W 122°36'0 0.0
2017-Aug-17 20:30N 48°31' W 122°36'0 0.1
2017-Aug-17 19:47N 48°31' W 122°36'3 9.3
2017-Aug-17 19:29N 48°33' W 122°34'5 9.2
2017-Aug-17 18:59N 48°37' W 122°33'4 1.4
2017-Aug-17 16:21N 48°34' W 122°34'3 7.2
2017-Aug-17 16:00N 48°36' W 122°34'4 0.8
2017-Aug-17 10:01N 48°32' W 122°34'214.2
2017-Aug-17 09:54N 48°34' W 122°34'2 4.6
2017-Aug-17 09:25N 48°36' W 122°34'5 0.5
2017-Aug-16 23:35N 48°31' W 122°36'112.5
2017-Aug-16 23:29N 48°32' W 122°35'4 8.5
2017-Aug-16 23:00N 48°35' W 122°33'3 3.8
2017-Aug-16 22:13N 48°33' W 122°34'312.0
2017-Aug-16 22:00N 48°35' W 122°34'1 1.4
2017-Aug-16 21:29N 48°35' W 122°33'4 1.4
2017-Aug-16 18:48N 48°32' W 122°34'412.2
2017-Aug-16 18:30N 48°35' W 122°34'1 1.4
2017-Aug-16 18:00N 48°36' W 122°34'5 0.3
2017-Aug-16 01:24N 48°31' W 122°34'513.8
2017-Aug-16 01:00N 48°37' W 122°34'5 1.5
2017-Aug-15 21:22N 48°32' W 122°34'411.0
2017-Aug-15 21:00N 48°35' W 122°33'3 1.3
2017-Aug-15 18:38N 48°32' W 122°34'213.2
2017-Aug-15 18:29N 48°35' W 122°34'1 2.2
2017-Aug-15 18:00N 48°35' W 122°33'0 0.1
2017-Aug-15 17:30N 48°35' W 122°33'0 0.1
2017-Aug-15 16:28N 48°35' W 122°33'0 0.0
2017-Aug-15 15:48N 48°35' W 122°33'1 3.1
2017-Aug-15 15:30N 48°35' W 122°34'2 0.6
2017-Aug-15 12:49N 48°33' W 122°34'3 9.1
2017-Aug-15 12:26N 48°37' W 122°34'5 1.1
2017-Aug-15 07:38N 48°31' W 122°35'212.6
2017-Aug-15 07:30N 48°33' W 122°34'4 8.4
2017-Aug-15 07:00N 48°37' W 122°34'4 6.7
2017-Aug-15 06:28N 48°34' W 122°34'3 0.3
2017-Aug-14 17:45N 48°31' W 122°36'4 6.4
2017-Aug-14 17:06N 48°35' W 122°34'113.8
2017-Aug-14 17:00N 48°36' W 122°34'4 0.4
2017-Aug-14 06:10N 48°31' W 122°35'214.0
2017-Aug-14 06:00N 48°34' W 122°34'3 6.6
2017-Aug-14 05:29N 48°37' W 122°34'0 0.3
2017-Aug-14 05:00N 48°37' W 122°34'0 0.1
2017-Aug-14 04:26N 48°37' W 122°34'0 0.3
2017-Aug-14 03:58N 48°37' W 122°34'1 2.4
2017-Aug-14 03:30N 48°37' W 122°33'5 2.5
2017-Aug-14 01:25N 48°31' W 122°34'513.6
2017-Aug-14 01:00N 48°37' W 122°34'0 0.1
2017-Aug-13 22:48N 48°37' W 122°34'0 0.1
2017-Aug-13 22:10N 48°37' W 122°34'0 0.5
2017-Aug-13 22:00N 48°37' W 122°34'7 2.7
2017-Aug-13 19:31N 48°31' W 122°36'0 0.0
2017-Aug-13 19:30N 48°31' W 122°36'0 0.1
2017-Aug-13 19:00N 48°31' W 122°36'611.5
2017-Aug-13 18:30N 48°36' W 122°34'1 2.1
2017-Aug-13 17:59N 48°37' W 122°34'2 4.9
2017-Aug-13 17:30N 48°35' W 122°34'5 9.2
2017-Aug-13 17:00N 48°31' W 122°36'0 0.0
2017-Aug-13 16:30N 48°31' W 122°36'0 0.0
2017-Aug-13 16:00N 48°31' W 122°36'1 1.6
2017-Aug-13 15:31N 48°31' W 122°35'510.7
2017-Aug-13 15:00N 48°36' W 122°34'611.8
2017-Aug-13 14:30N 48°31' W 122°36'0 0.6
2017-Aug-13 14:00N 48°31' W 122°36'0 0.0
2017-Aug-13 05:09N 48°31' W 122°36'0 3.3
2017-Aug-13 05:00N 48°31' W 122°36'5 9.5
2017-Aug-13 04:31N 48°35' W 122°34'5 9.6
2017-Aug-13 04:00N 48°31' W 122°36'712.8
2017-Aug-13 03:30N 48°37' W 122°34'0 0.9
2017-Aug-13 03:00N 48°37' W 122°34'0 0.9
2017-Aug-13 02:30N 48°38' W 122°33'4 7.5
2017-Aug-13 02:00N 48°34' W 122°34'4 7.4
2017-Aug-13 01:30N 48°31' W 122°36'0 0.0
2017-Aug-13 01:00N 48°31' W 122°36'0 0.0
2017-Aug-13 00:30N 48°31' W 122°36'0 0.0
2017-Aug-12 23:59N 48°31' W 122°36'3 6.3
2017-Aug-12 23:30N 48°33' W 122°34'3 5.9
2017-Aug-12 23:00N 48°36' W 122°33'611.7
2017-Aug-12 22:30N 48°31' W 122°36'0 0.0
2017-Aug-12 06:04N 48°31' W 122°36'0 0.0
2017-Aug-12 06:00N 48°31' W 122°36'0 0.3
2017-Aug-12 05:31N 48°31' W 122°36'0 0.2
2017-Aug-12 05:00N 48°31' W 122°36'0 0.0
2017-Aug-12 04:30N 48°31' W 122°36'0 0.0
2017-Aug-12 04:00N 48°31' W 122°36'3 5.3
2017-Aug-12 03:31N 48°33' W 122°34'4 8.4
2017-Aug-12 03:00N 48°37' W 122°33'612.8
2017-Aug-12 02:30N 48°31' W 122°36'0 0.0
2017-Aug-12 00:14N 48°31' W 122°36'0 0.2
2017-Aug-12 00:00N 48°31' W 122°36'1 2.9
2017-Aug-11 23:30N 48°31' W 122°35'611.7
2017-Aug-11 22:59N 48°37' W 122°33'713.7
2017-Aug-11 22:30N 48°31' W 122°35'1 0.0
2017-Aug-10 23:53N 48°31' W 122°36'3 7.2
2017-Aug-10 23:30N 48°33' W 122°34'4 9.0
2017-Aug-10 23:00N 48°37' W 122°32'611.0
2017-Aug-10 22:30N 48°32' W 122°34'2 3.8
2017-Aug-10 22:00N 48°31' W 122°36'0 0.0
2017-Aug-10 21:30N 48°31' W 122°36'0 0.0
2017-Aug-10 21:00N 48°31' W 122°36'0 0.0
2017-Aug-10 20:30N 48°31' W 122°36'0 0.0
2017-Aug-10 20:00N 48°31' W 122°36'4 7.2
2017-Aug-10 19:30N 48°34' W 122°34'3 6.9
2017-Aug-10 19:00N 48°37' W 122°33'  
Track history (hours):
 
Tides and Currents Weather Stations Pressure Air Temp Water Temp Dewpoint Dewpoint Depression Visibility Wind Speed Wind Dir Waves Ship Positions

Sioux Arrow

Owner: HARMON, JACK L, PORT ANGELES, WA. More information available from US FCC via Universal Licensing System and Coast Guard Vessel Documentation Center.

Last reported at 2017-Aug-20 18:59 UTC. Time now 2017-Aug-20 19:09 UTC.
Position N 48°33' W 122°34'.

Type: Port tender. MMSI: 366973370.

Date/timePositionNaut miles runAvg speedWind from/ knotsBaromVisibWave heightAir tempDewpointWater temp
2017-Aug-20 18:59N 48°33' W 122°34'3 6.7
2017-Aug-20 18:31N 48°36' W 122°32'0 0.1
2017-Aug-20 17:38N 48°36' W 122°32'1 5.8
2017-Aug-20 17:31N 48°36' W 122°33'5 0.3
2017-Aug-20 01:39N 48°31' W 122°35'312.9
2017-Aug-20 01:27N 48°34' W 122°34'3 6.4
2017-Aug-20 01:00N 48°37' W 122°34'5 1.0
2017-Aug-19 19:22N 48°32' W 122°35'411.7
2017-Aug-19 19:00N 48°36' W 122°36'0 0.2
2017-Aug-19 18:30N 48°36' W 122°36'5 0.5
2017-Aug-19 08:19N 48°31' W 122°36'310.1
2017-Aug-19 08:00N 48°34' W 122°35'2 3.3
2017-Aug-19 07:22N 48°36' W 122°35'1 1.5
2017-Aug-19 06:58N 48°35' W 122°36'1 0.6
2017-Aug-19 04:59N 48°35' W 122°34'1 2.5
2017-Aug-19 04:29N 48°36' W 122°34'2 0.5
2017-Aug-19 00:24N 48°34' W 122°34'3 7.3
2017-Aug-18 23:59N 48°36' W 122°32'1 2.6
2017-Aug-18 23:30N 48°35' W 122°34'1 0.2
2017-Aug-18 18:59N 48°34' W 122°34'3 6.3
2017-Aug-18 18:29N 48°37' W 122°33'4 7.7
2017-Aug-18 17:59N 48°34' W 122°34'0 0.0
2017-Aug-18 03:12N 48°34' W 122°34'314.0
2017-Aug-18 03:00N 48°36' W 122°34'6 0.9
2017-Aug-17 20:49N 48°31' W 122°36'0 0.0
2017-Aug-17 20:30N 48°31' W 122°36'0 0.1
2017-Aug-17 19:47N 48°31' W 122°36'3 9.3
2017-Aug-17 19:29N 48°33' W 122°34'5 9.2
2017-Aug-17 18:59N 48°37' W 122°33'4 1.4
2017-Aug-17 16:21N 48°34' W 122°34'3 7.2
2017-Aug-17 16:00N 48°36' W 122°34'4 0.8
2017-Aug-17 10:01N 48°32' W 122°34'214.2
2017-Aug-17 09:54N 48°34' W 122°34'2 4.6
2017-Aug-17 09:25N 48°36' W 122°34'5 0.5
2017-Aug-16 23:35N 48°31' W 122°36'112.5
2017-Aug-16 23:29N 48°32' W 122°35'4 8.5
2017-Aug-16 23:00N 48°35' W 122°33'3 3.8
2017-Aug-16 22:13N 48°33' W 122°34'312.0
2017-Aug-16 22:00N 48°35' W 122°34'1 1.4
2017-Aug-16 21:29N 48°35' W 122°33'4 1.4
2017-Aug-16 18:48N 48°32' W 122°34'412.2
2017-Aug-16 18:30N 48°35' W 122°34'1 1.4
2017-Aug-16 18:00N 48°36' W 122°34'5 0.3
2017-Aug-16 01:24N 48°31' W 122°34'513.8
2017-Aug-16 01:00N 48°37' W 122°34'5 1.5
2017-Aug-15 21:22N 48°32' W 122°34'411.0
2017-Aug-15 21:00N 48°35' W 122°33'3 1.3
2017-Aug-15 18:38N 48°32' W 122°34'213.2
2017-Aug-15 18:29N 48°35' W 122°34'1 2.2
2017-Aug-15 18:00N 48°35' W 122°33'0 0.1
2017-Aug-15 17:30N 48°35' W 122°33'0 0.1
2017-Aug-15 16:28N 48°35' W 122°33'0 0.0
2017-Aug-15 15:48N 48°35' W 122°33'1 3.1
2017-Aug-15 15:30N 48°35' W 122°34'2 0.6
2017-Aug-15 12:49N 48°33' W 122°34'3 9.1
2017-Aug-15 12:26N 48°37' W 122°34'5 1.1
2017-Aug-15 07:38N 48°31' W 122°35'212.6
2017-Aug-15 07:30N 48°33' W 122°34'4 8.4
2017-Aug-15 07:00N 48°37' W 122°34'4 6.7
2017-Aug-15 06:28N 48°34' W 122°34'3 0.3
2017-Aug-14 17:45N 48°31' W 122°36'4 6.4
2017-Aug-14 17:06N 48°35' W 122°34'113.8
2017-Aug-14 17:00N 48°36' W 122°34'4 0.4
2017-Aug-14 06:10N 48°31' W 122°35'214.0
2017-Aug-14 06:00N 48°34' W 122°34'3 6.6
2017-Aug-14 05:29N 48°37' W 122°34'0 0.3
2017-Aug-14 05:00N 48°37' W 122°34'0 0.1
2017-Aug-14 04:26N 48°37' W 122°34'0 0.3
2017-Aug-14 03:58N 48°37' W 122°34'1 2.4
2017-Aug-14 03:30N 48°37' W 122°33'5 2.5
2017-Aug-14 01:25N 48°31' W 122°34'513.6
2017-Aug-14 01:00N 48°37' W 122°34'0 0.1
2017-Aug-13 22:48N 48°37' W 122°34'0 0.1
2017-Aug-13 22:10N 48°37' W 122°34'0 0.5
2017-Aug-13 22:00N 48°37' W 122°34'7 2.7
2017-Aug-13 19:31N 48°31' W 122°36'0 0.0
2017-Aug-13 19:30N 48°31' W 122°36'0 0.1
2017-Aug-13 19:00N 48°31' W 122°36'611.5
2017-Aug-13 18:30N 48°36' W 122°34'1 2.1
2017-Aug-13 17:59N 48°37' W 122°34'2 4.9
2017-Aug-13 17:30N 48°35' W 122°34'5 9.2
2017-Aug-13 17:00N 48°31' W 122°36'0 0.0
2017-Aug-13 16:30N 48°31' W 122°36'0 0.0
2017-Aug-13 16:00N 48°31' W 122°36'1 1.6
2017-Aug-13 15:31N 48°31' W 122°35'510.7
2017-Aug-13 15:00N 48°36' W 122°34'611.8
2017-Aug-13 14:30N 48°31' W 122°36'0 0.6
2017-Aug-13 14:00N 48°31' W 122°36'0 0.0
2017-Aug-13 05:09N 48°31' W 122°36'0 3.3
2017-Aug-13 05:00N 48°31' W 122°36'5 9.5
2017-Aug-13 04:31N 48°35' W 122°34'5 9.6
2017-Aug-13 04:00N 48°31' W 122°36'712.8
2017-Aug-13 03:30N 48°37' W 122°34'0 0.9
2017-Aug-13 03:00N 48°37' W 122°34'0 0.9
2017-Aug-13 02:30N 48°38' W 122°33'4 7.5
2017-Aug-13 02:00N 48°34' W 122°34'4 7.4
2017-Aug-13 01:30N 48°31' W 122°36'0 0.0
2017-Aug-13 01:00N 48°31' W 122°36'0 0.0
2017-Aug-13 00:30N 48°31' W 122°36'0 0.0
2017-Aug-12 23:59N 48°31' W 122°36'3 6.3
2017-Aug-12 23:30N 48°33' W 122°34'3 5.9
2017-Aug-12 23:00N 48°36' W 122°33'611.7
2017-Aug-12 22:30N 48°31' W 122°36'0 0.0
2017-Aug-12 06:04N 48°31' W 122°36'0 0.0
2017-Aug-12 06:00N 48°31' W 122°36'0 0.3
2017-Aug-12 05:31N 48°31' W 122°36'0 0.2
2017-Aug-12 05:00N 48°31' W 122°36'0 0.0
2017-Aug-12 04:30N 48°31' W 122°36'0 0.0
2017-Aug-12 04:00N 48°31' W 122°36'3 5.3
2017-Aug-12 03:31N 48°33' W 122°34'4 8.4
2017-Aug-12 03:00N 48°37' W 122°33'612.8
2017-Aug-12 02:30N 48°31' W 122°36'0 0.0
2017-Aug-12 00:14N 48°31' W 122°36'0 0.2
2017-Aug-12 00:00N 48°31' W 122°36'1 2.9
2017-Aug-11 23:30N 48°31' W 122°35'611.7
2017-Aug-11 22:59N 48°37' W 122°33'713.7
2017-Aug-11 22:30N 48°31' W 122°35'1 0.0
2017-Aug-10 23:53N 48°31' W 122°36'3 7.2
2017-Aug-10 23:30N 48°33' W 122°34'4 9.0
2017-Aug-10 23:00N 48°37' W 122°32'611.0
2017-Aug-10 22:30N 48°32' W 122°34'2 3.8
2017-Aug-10 22:00N 48°31' W 122°36'0 0.0
2017-Aug-10 21:30N 48°31' W 122°36'0 0.0
2017-Aug-10 21:00N 48°31' W 122°36'0 0.0
2017-Aug-10 20:30N 48°31' W 122°36'0 0.0
2017-Aug-10 20:00N 48°31' W 122°36'4 7.2
2017-Aug-10 19:30N 48°34' W 122°34'3 6.9
2017-Aug-10 19:00N 48°37' W 122°33'  

Dump ship's entire track history